sensor_id;sensor_type;location;lat;lon;timestamp;temperature;humidity
10828;DHT22;5467;59.334;13.512;2022-12-18T00:01:15;2.90;99.90
10828;DHT22;5467;59.334;13.512;2022-12-18T00:03:43;2.90;99.90
10828;DHT22;5467;59.334;13.512;2022-12-18T00:06:10;2.90;99.90
10828;DHT22;5467;59.334;13.512;2022-12-18T00:08:37;2.90;99.90
10828;DHT22;5467;59.334;13.512;2022-12-18T00:11:05;2.90;99.90
10828;DHT22;5467;59.334;13.512;2022-12-18T00:13:34;2.90;99.90
10828;DHT22;5467;59.334;13.512;2022-12-18T00:16:02;2.90;99.90
10828;DHT22;5467;59.334;13.512;2022-12-18T00:18:29;2.90;99.90
10828;DHT22;5467;59.334;13.512;2022-12-18T00:20:59;2.90;99.90
10828;DHT22;5467;59.334;13.512;2022-12-18T00:23:26;2.90;99.90
10828;DHT22;5467;59.334;13.512;2022-12-18T00:25:53;2.90;99.90
10828;DHT22;5467;59.334;13.512;2022-12-18T00:28:21;2.90;99.90
10828;DHT22;5467;59.334;13.512;2022-12-18T00:30:49;2.90;99.90
10828;DHT22;5467;59.334;13.512;2022-12-18T00:33:17;2.90;99.90
10828;DHT22;5467;59.334;13.512;2022-12-18T00:35:44;2.90;99.90
10828;DHT22;5467;59.334;13.512;2022-12-18T00:38:11;2.90;99.90
10828;DHT22;5467;59.334;13.512;2022-12-18T00:40:38;2.90;99.90
10828;DHT22;5467;59.334;13.512;2022-12-18T00:43:08;2.90;99.90
10828;DHT22;5467;59.334;13.512;2022-12-18T00:45:34;2.90;99.90
10828;DHT22;5467;59.334;13.512;2022-12-18T00:48:03;2.90;99.90
10828;DHT22;5467;59.334;13.512;2022-12-18T00:50:30;2.90;99.90
10828;DHT22;5467;59.334;13.512;2022-12-18T00:52:57;2.90;99.90
10828;DHT22;5467;59.334;13.512;2022-12-18T00:55:24;2.90;99.90
10828;DHT22;5467;59.334;13.512;2022-12-18T00:57:51;2.90;99.90
10828;DHT22;5467;59.334;13.512;2022-12-18T01:00:19;3.00;99.90
10828;DHT22;5467;59.334;13.512;2022-12-18T01:02:46;2.90;99.90
10828;DHT22;5467;59.334;13.512;2022-12-18T01:05:15;2.90;99.90
10828;DHT22;5467;59.334;13.512;2022-12-18T01:07:42;2.80;99.90
10828;DHT22;5467;59.334;13.512;2022-12-18T01:10:11;2.70;99.90
10828;DHT22;5467;59.334;13.512;2022-12-18T01:12:39;2.80;99.90
10828;DHT22;5467;59.334;13.512;2022-12-18T01:15:07;2.80;99.90
10828;DHT22;5467;59.334;13.512;2022-12-18T01:17:35;2.70;99.90
10828;DHT22;5467;59.334;13.512;2022-12-18T01:20:02;2.70;99.90
10828;DHT22;5467;59.334;13.512;2022-12-18T01:22:33;2.70;99.90
10828;DHT22;5467;59.334;13.512;2022-12-18T01:25:01;2.60;99.90
10828;DHT22;5467;59.334;13.512;2022-12-18T01:27:28;2.60;99.90
10828;DHT22;5467;59.334;13.512;2022-12-18T01:29:55;2.60;99.90
10828;DHT22;5467;59.334;13.512;2022-12-18T01:32:22;2.60;99.90
10828;DHT22;5467;59.334;13.512;2022-12-18T01:34:49;2.60;99.90
10828;DHT22;5467;59.334;13.512;2022-12-18T01:37:16;2.70;99.90
10828;DHT22;5467;59.334;13.512;2022-12-18T01:39:45;2.70;99.90
10828;DHT22;5467;59.334;13.512;2022-12-18T01:42:14;2.70;99.90
10828;DHT22;5467;59.334;13.512;2022-12-18T01:44:59;2.70;99.90
10828;DHT22;5467;59.334;13.512;2022-12-18T01:47:30;2.80;99.90
10828;DHT22;5467;59.334;13.512;2022-12-18T01:50:00;2.80;99.90
10828;DHT22;5467;59.334;13.512;2022-12-18T01:52:30;2.80;99.90
10828;DHT22;5467;59.334;13.512;2022-12-18T01:55:00;2.80;99.90
10828;DHT22;5467;59.334;13.512;2022-12-18T01:57:28;2.80;99.90
10828;DHT22;5467;59.334;13.512;2022-12-18T01:59:59;2.90;99.90
10828;DHT22;5467;59.334;13.512;2022-12-18T02:02:28;2.90;99.90
10828;DHT22;5467;59.334;13.512;2022-12-18T02:04:56;2.80;99.90
10828;DHT22;5467;59.334;13.512;2022-12-18T02:07:30;2.90;99.90
10828;DHT22;5467;59.334;13.512;2022-12-18T02:10:03;2.90;99.90
10828;DHT22;5467;59.334;13.512;2022-12-18T02:12:39;2.90;99.90
10828;DHT22;5467;59.334;13.512;2022-12-18T02:15:13;2.90;99.90
10828;DHT22;5467;59.334;13.512;2022-12-18T02:17:47;2.90;99.90
10828;DHT22;5467;59.334;13.512;2022-12-18T02:20:20;2.90;99.90
10828;DHT22;5467;59.334;13.512;2022-12-18T02:23:03;2.80;99.90
10828;DHT22;5467;59.334;13.512;2022-12-18T02:25:51;2.90;99.90
10828;DHT22;5467;59.334;13.512;2022-12-18T02:28:21;2.90;99.90
10828;DHT22;5467;59.334;13.512;2022-12-18T02:30:52;2.90;99.90
10828;DHT22;5467;59.334;13.512;2022-12-18T02:33:21;2.90;99.90
10828;DHT22;5467;59.334;13.512;2022-12-18T02:35:48;2.90;99.90
10828;DHT22;5467;59.334;13.512;2022-12-18T02:38:18;2.80;99.90
10828;DHT22;5467;59.334;13.512;2022-12-18T02:40:46;2.90;99.90
10828;DHT22;5467;59.334;13.512;2022-12-18T02:43:15;2.90;99.90
10828;DHT22;5467;59.334;13.512;2022-12-18T02:45:52;2.80;99.90
10828;DHT22;5467;59.334;13.512;2022-12-18T02:48:23;2.80;99.90
10828;DHT22;5467;59.334;13.512;2022-12-18T02:50:57;2.80;99.90
10828;DHT22;5467;59.334;13.512;2022-12-18T02:53:30;2.80;99.90
10828;DHT22;5467;59.334;13.512;2022-12-18T02:56:05;2.70;99.90
10828;DHT22;5467;59.334;13.512;2022-12-18T02:58:40;2.70;99.90
10828;DHT22;5467;59.334;13.512;2022-12-18T03:01:16;2.80;99.90
10828;DHT22;5467;59.334;13.512;2022-12-18T03:03:49;2.70;99.90
10828;DHT22;5467;59.334;13.512;2022-12-18T03:06:23;2.80;99.90
10828;DHT22;5467;59.334;13.512;2022-12-18T03:08:56;2.70;99.90
10828;DHT22;5467;59.334;13.512;2022-12-18T03:11:25;2.70;99.90
10828;DHT22;5467;59.334;13.512;2022-12-18T03:14:09;2.80;99.90
10828;DHT22;5467;59.334;13.512;2022-12-18T03:16:40;2.80;99.90
10828;DHT22;5467;59.334;13.512;2022-12-18T03:19:11;2.80;99.90
10828;DHT22;5467;59.334;13.512;2022-12-18T03:21:45;2.80;99.90
10828;DHT22;5467;59.334;13.512;2022-12-18T03:24:12;2.80;99.90
10828;DHT22;5467;59.334;13.512;2022-12-18T03:26:43;2.80;99.90
10828;DHT22;5467;59.334;13.512;2022-12-18T03:29:17;2.80;99.90
10828;DHT22;5467;59.334;13.512;2022-12-18T03:31:49;2.80;99.90
10828;DHT22;5467;59.334;13.512;2022-12-18T03:34:21;2.80;99.90
10828;DHT22;5467;59.334;13.512;2022-12-18T03:36:50;2.80;99.90
10828;DHT22;5467;59.334;13.512;2022-12-18T03:39:18;2.80;99.90
10828;DHT22;5467;59.334;13.512;2022-12-18T03:41:51;2.80;99.90
10828;DHT22;5467;59.334;13.512;2022-12-18T03:44:26;2.80;99.90
10828;DHT22;5467;59.334;13.512;2022-12-18T03:46:59;2.80;99.90
10828;DHT22;5467;59.334;13.512;2022-12-18T03:49:35;2.80;99.90
10828;DHT22;5467;59.334;13.512;2022-12-18T03:52:08;2.80;99.90
10828;DHT22;5467;59.334;13.512;2022-12-18T03:54:37;2.90;99.90
10828;DHT22;5467;59.334;13.512;2022-12-18T03:57:09;2.90;99.90
10828;DHT22;5467;59.334;13.512;2022-12-18T03:59:40;2.80;99.90
10828;DHT22;5467;59.334;13.512;2022-12-18T04:02:08;2.80;99.90
10828;DHT22;5467;59.334;13.512;2022-12-18T04:04:35;2.80;99.90
10828;DHT22;5467;59.334;13.512;2022-12-18T04:07:04;2.80;99.90
10828;DHT22;5467;59.334;13.512;2022-12-18T04:09:33;2.80;99.90
10828;DHT22;5467;59.334;13.512;2022-12-18T04:12:00;2.80;99.90
10828;DHT22;5467;59.334;13.512;2022-12-18T04:14:28;2.90;99.90
10828;DHT22;5467;59.334;13.512;2022-12-18T04:16:56;2.90;99.90
10828;DHT22;5467;59.334;13.512;2022-12-18T04:19:23;2.90;99.90
10828;DHT22;5467;59.334;13.512;2022-12-18T04:21:50;3.00;99.90
10828;DHT22;5467;59.334;13.512;2022-12-18T04:24:18;2.90;99.90
10828;DHT22;5467;59.334;13.512;2022-12-18T04:26:45;2.90;99.90
10828;DHT22;5467;59.334;13.512;2022-12-18T04:29:12;2.90;99.90
10828;DHT22;5467;59.334;13.512;2022-12-18T04:31:39;2.90;99.90
10828;DHT22;5467;59.334;13.512;2022-12-18T04:34:08;2.90;99.90
10828;DHT22;5467;59.334;13.512;2022-12-18T04:36:35;2.90;99.90
10828;DHT22;5467;59.334;13.512;2022-12-18T04:39:02;2.90;99.90
10828;DHT22;5467;59.334;13.512;2022-12-18T04:41:29;2.90;99.90
10828;DHT22;5467;59.334;13.512;2022-12-18T04:43:57;2.90;99.90
10828;DHT22;5467;59.334;13.512;2022-12-18T04:46:24;2.90;99.90
10828;DHT22;5467;59.334;13.512;2022-12-18T04:48:51;2.90;99.90
10828;DHT22;5467;59.334;13.512;2022-12-18T04:51:20;2.90;99.90
10828;DHT22;5467;59.334;13.512;2022-12-18T04:53:47;2.90;99.90
10828;DHT22;5467;59.334;13.512;2022-12-18T04:56:15;2.90;99.90
10828;DHT22;5467;59.334;13.512;2022-12-18T04:58:44;2.90;99.90
10828;DHT22;5467;59.334;13.512;2022-12-18T05:01:12;2.90;99.90
10828;DHT22;5467;59.334;13.512;2022-12-18T05:03:39;2.90;99.90
10828;DHT22;5467;59.334;13.512;2022-12-18T05:06:07;3.00;99.90
10828;DHT22;5467;59.334;13.512;2022-12-18T05:08:36;3.00;99.90
10828;DHT22;5467;59.334;13.512;2022-12-18T05:11:05;3.00;99.90
10828;DHT22;5467;59.334;13.512;2022-12-18T05:13:34;3.00;99.90
10828;DHT22;5467;59.334;13.512;2022-12-18T05:16:01;3.00;99.90
10828;DHT22;5467;59.334;13.512;2022-12-18T05:18:29;3.00;99.90
10828;DHT22;5467;59.334;13.512;2022-12-18T05:20:56;3.00;99.90
10828;DHT22;5467;59.334;13.512;2022-12-18T05:23:24;3.00;99.90
10828;DHT22;5467;59.334;13.512;2022-12-18T05:25:54;3.00;99.90
10828;DHT22;5467;59.334;13.512;2022-12-18T05:28:22;3.10;99.90
10828;DHT22;5467;59.334;13.512;2022-12-18T05:30:51;3.10;99.90
10828;DHT22;5467;59.334;13.512;2022-12-18T05:33:18;3.10;99.90
10828;DHT22;5467;59.334;13.512;2022-12-18T05:35:50;3.10;99.90
10828;DHT22;5467;59.334;13.512;2022-12-18T05:38:17;3.10;99.90
10828;DHT22;5467;59.334;13.512;2022-12-18T05:40:44;3.10;99.90
10828;DHT22;5467;59.334;13.512;2022-12-18T05:43:13;3.10;99.90
10828;DHT22;5467;59.334;13.512;2022-12-18T05:45:40;3.10;99.90
10828;DHT22;5467;59.334;13.512;2022-12-18T05:48:08;3.10;99.90
10828;DHT22;5467;59.334;13.512;2022-12-18T05:50:36;3.20;99.90
10828;DHT22;5467;59.334;13.512;2022-12-18T05:53:04;3.20;99.90
10828;DHT22;5467;59.334;13.512;2022-12-18T05:55:33;3.20;99.90
10828;DHT22;5467;59.334;13.512;2022-12-18T05:58:00;3.20;99.90
10828;DHT22;5467;59.334;13.512;2022-12-18T06:00:29;3.20;99.90
10828;DHT22;5467;59.334;13.512;2022-12-18T06:02:57;3.20;99.90
10828;DHT22;5467;59.334;13.512;2022-12-18T06:05:27;3.20;99.90
10828;DHT22;5467;59.334;13.512;2022-12-18T06:07:54;3.20;99.90
10828;DHT22;5467;59.334;13.512;2022-12-18T06:10:21;3.20;99.90
10828;DHT22;5467;59.334;13.512;2022-12-18T06:12:48;3.20;99.90
10828;DHT22;5467;59.334;13.512;2022-12-18T06:15:16;3.20;99.90
10828;DHT22;5467;59.334;13.512;2022-12-18T06:17:44;3.30;99.90
10828;DHT22;5467;59.334;13.512;2022-12-18T06:20:11;3.20;99.90
10828;DHT22;5467;59.334;13.512;2022-12-18T06:22:38;3.20;99.90
10828;DHT22;5467;59.334;13.512;2022-12-18T06:25:06;3.30;99.90
10828;DHT22;5467;59.334;13.512;2022-12-18T06:27:34;3.20;99.90
10828;DHT22;5467;59.334;13.512;2022-12-18T06:30:01;3.30;99.90
10828;DHT22;5467;59.334;13.512;2022-12-18T06:32:28;3.20;99.90
10828;DHT22;5467;59.334;13.512;2022-12-18T06:34:57;3.30;99.90
10828;DHT22;5467;59.334;13.512;2022-12-18T06:37:24;3.30;99.90
10828;DHT22;5467;59.334;13.512;2022-12-18T06:39:51;3.20;99.90
10828;DHT22;5467;59.334;13.512;2022-12-18T06:42:24;3.30;99.90
10828;DHT22;5467;59.334;13.512;2022-12-18T06:44:51;3.30;99.90
10828;DHT22;5467;59.334;13.512;2022-12-18T06:47:19;3.30;99.90
10828;DHT22;5467;59.334;13.512;2022-12-18T06:49:46;3.30;99.90
10828;DHT22;5467;59.334;13.512;2022-12-18T06:52:17;3.30;99.90
10828;DHT22;5467;59.334;13.512;2022-12-18T06:54:44;3.30;99.90
10828;DHT22;5467;59.334;13.512;2022-12-18T06:57:11;3.30;99.90
10828;DHT22;5467;59.334;13.512;2022-12-18T06:59:38;3.30;99.90
10828;DHT22;5467;59.334;13.512;2022-12-18T07:02:06;3.30;99.90
10828;DHT22;5467;59.334;13.512;2022-12-18T07:04:33;3.40;99.90
10828;DHT22;5467;59.334;13.512;2022-12-18T07:07:00;3.40;99.90
10828;DHT22;5467;59.334;13.512;2022-12-18T07:09:28;3.40;99.90
10828;DHT22;5467;59.334;13.512;2022-12-18T07:11:55;3.40;99.90
10828;DHT22;5467;59.334;13.512;2022-12-18T07:14:22;3.40;99.90
10828;DHT22;5467;59.334;13.512;2022-12-18T07:16:49;3.40;99.90
10828;DHT22;5467;59.334;13.512;2022-12-18T07:19:17;3.40;99.90
10828;DHT22;5467;59.334;13.512;2022-12-18T07:21:44;3.40;99.90
10828;DHT22;5467;59.334;13.512;2022-12-18T07:24:11;3.30;99.90
10828;DHT22;5467;59.334;13.512;2022-12-18T07:26:40;3.30;99.90
10828;DHT22;5467;59.334;13.512;2022-12-18T07:29:07;3.30;99.90
10828;DHT22;5467;59.334;13.512;2022-12-18T07:31:34;3.30;99.90
10828;DHT22;5467;59.334;13.512;2022-12-18T07:34:01;3.20;99.90
10828;DHT22;5467;59.334;13.512;2022-12-18T07:36:28;3.20;99.90
10828;DHT22;5467;59.334;13.512;2022-12-18T07:38:55;3.30;99.90
10828;DHT22;5467;59.334;13.512;2022-12-18T07:41:22;3.30;99.90
10828;DHT22;5467;59.334;13.512;2022-12-18T07:43:51;3.40;99.90
10828;DHT22;5467;59.334;13.512;2022-12-18T07:46:18;3.40;99.90
10828;DHT22;5467;59.334;13.512;2022-12-18T07:48:45;3.40;99.90
10828;DHT22;5467;59.334;13.512;2022-12-18T07:51:13;3.40;99.90
10828;DHT22;5467;59.334;13.512;2022-12-18T07:53:40;3.40;99.90
10828;DHT22;5467;59.334;13.512;2022-12-18T07:56:09;3.40;99.90
10828;DHT22;5467;59.334;13.512;2022-12-18T07:58:37;3.40;99.90
10828;DHT22;5467;59.334;13.512;2022-12-18T08:01:07;3.40;99.90
10828;DHT22;5467;59.334;13.512;2022-12-18T08:03:34;3.40;99.90
10828;DHT22;5467;59.334;13.512;2022-12-18T08:06:02;3.40;99.90
10828;DHT22;5467;59.334;13.512;2022-12-18T08:08:30;3.40;99.90
10828;DHT22;5467;59.334;13.512;2022-12-18T08:10:58;3.40;99.90
10828;DHT22;5467;59.334;13.512;2022-12-18T08:13:25;3.60;99.90
10828;DHT22;5467;59.334;13.512;2022-12-18T08:15:56;3.40;99.90
10828;DHT22;5467;59.334;13.512;2022-12-18T08:18:25;3.50;99.90
10828;DHT22;5467;59.334;13.512;2022-12-18T08:20:52;3.50;99.90
10828;DHT22;5467;59.334;13.512;2022-12-18T08:23:19;3.50;99.90
10828;DHT22;5467;59.334;13.512;2022-12-18T08:25:47;3.50;99.90
10828;DHT22;5467;59.334;13.512;2022-12-18T08:28:17;3.50;99.90
10828;DHT22;5467;59.334;13.512;2022-12-18T08:30:44;3.50;99.90
10828;DHT22;5467;59.334;13.512;2022-12-18T08:33:12;3.50;99.90
10828;DHT22;5467;59.334;13.512;2022-12-18T08:35:40;3.60;99.90
10828;DHT22;5467;59.334;13.512;2022-12-18T08:38:07;3.60;99.90
10828;DHT22;5467;59.334;13.512;2022-12-18T08:40:34;3.60;99.90
10828;DHT22;5467;59.334;13.512;2022-12-18T08:43:01;3.60;99.90
10828;DHT22;5467;59.334;13.512;2022-12-18T08:45:46;3.60;99.90
10828;DHT22;5467;59.334;13.512;2022-12-18T08:48:13;3.60;99.90
10828;DHT22;5467;59.334;13.512;2022-12-18T08:50:41;3.60;99.90
10828;DHT22;5467;59.334;13.512;2022-12-18T08:53:08;3.60;99.90
10828;DHT22;5467;59.334;13.512;2022-12-18T08:55:35;3.60;99.90
10828;DHT22;5467;59.334;13.512;2022-12-18T08:58:02;3.70;99.90
10828;DHT22;5467;59.334;13.512;2022-12-18T09:00:32;3.70;99.90
10828;DHT22;5467;59.334;13.512;2022-12-18T09:03:00;3.70;99.90
10828;DHT22;5467;59.334;13.512;2022-12-18T09:05:27;3.70;99.90
10828;DHT22;5467;59.334;13.512;2022-12-18T09:07:56;3.70;99.90
10828;DHT22;5467;59.334;13.512;2022-12-18T09:10:23;3.70;99.90
10828;DHT22;5467;59.334;13.512;2022-12-18T09:12:50;3.80;99.90
10828;DHT22;5467;59.334;13.512;2022-12-18T09:15:17;3.70;99.90
10828;DHT22;5467;59.334;13.512;2022-12-18T09:17:44;3.80;99.90
10828;DHT22;5467;59.334;13.512;2022-12-18T09:20:11;3.80;99.90
10828;DHT22;5467;59.334;13.512;2022-12-18T09:22:38;3.90;99.90
10828;DHT22;5467;59.334;13.512;2022-12-18T09:25:07;3.90;99.90
10828;DHT22;5467;59.334;13.512;2022-12-18T09:27:34;3.90;99.90
10828;DHT22;5467;59.334;13.512;2022-12-18T09:30:01;3.90;99.90
10828;DHT22;5467;59.334;13.512;2022-12-18T09:32:29;3.90;99.90
10828;DHT22;5467;59.334;13.512;2022-12-18T09:34:56;3.90;99.90
10828;DHT22;5467;59.334;13.512;2022-12-18T09:37:23;3.90;99.90
10828;DHT22;5467;59.334;13.512;2022-12-18T09:39:50;3.90;99.90
10828;DHT22;5467;59.334;13.512;2022-12-18T09:42:21;3.90;99.90
10828;DHT22;5467;59.334;13.512;2022-12-18T09:44:50;3.90;99.90
10828;DHT22;5467;59.334;13.512;2022-12-18T09:47:20;3.90;99.90
10828;DHT22;5467;59.334;13.512;2022-12-18T09:49:52;3.90;99.90
10828;DHT22;5467;59.334;13.512;2022-12-18T09:52:22;4.00;99.90
10828;DHT22;5467;59.334;13.512;2022-12-18T09:54:53;3.90;99.90
10828;DHT22;5467;59.334;13.512;2022-12-18T09:57:23;4.00;99.90
10828;DHT22;5467;59.334;13.512;2022-12-18T09:59:55;4.00;99.90
10828;DHT22;5467;59.334;13.512;2022-12-18T10:02:24;4.00;99.90
10828;DHT22;5467;59.334;13.512;2022-12-18T10:05:03;4.00;99.90
10828;DHT22;5467;59.334;13.512;2022-12-18T10:07:38;4.00;99.90
10828;DHT22;5467;59.334;13.512;2022-12-18T10:10:12;4.10;99.90
10828;DHT22;5467;59.334;13.512;2022-12-18T10:12:47;4.10;99.90
10828;DHT22;5467;59.334;13.512;2022-12-18T10:15:19;4.10;99.90
10828;DHT22;5467;59.334;13.512;2022-12-18T10:17:54;4.10;99.90
10828;DHT22;5467;59.334;13.512;2022-12-18T10:20:29;4.10;99.90
10828;DHT22;5467;59.334;13.512;2022-12-18T10:23:04;4.10;99.90
10828;DHT22;5467;59.334;13.512;2022-12-18T10:25:40;4.10;99.90
10828;DHT22;5467;59.334;13.512;2022-12-18T10:28:13;4.10;99.90
10828;DHT22;5467;59.334;13.512;2022-12-18T10:30:42;4.20;99.90
10828;DHT22;5467;59.334;13.512;2022-12-18T10:33:11;4.20;99.90
10828;DHT22;5467;59.334;13.512;2022-12-18T10:35:41;4.20;99.90
10828;DHT22;5467;59.334;13.512;2022-12-18T10:38:21;4.20;99.90
10828;DHT22;5467;59.334;13.512;2022-12-18T10:40:51;4.30;99.90
10828;DHT22;5467;59.334;13.512;2022-12-18T10:43:25;4.30;99.90
10828;DHT22;5467;59.334;13.512;2022-12-18T10:46:13;4.30;99.90
10828;DHT22;5467;59.334;13.512;2022-12-18T10:48:50;4.40;99.90
10828;DHT22;5467;59.334;13.512;2022-12-18T10:51:23;4.40;99.90
10828;DHT22;5467;59.334;13.512;2022-12-18T10:53:56;4.40;99.90
10828;DHT22;5467;59.334;13.512;2022-12-18T10:56:26;4.40;99.90
10828;DHT22;5467;59.334;13.512;2022-12-18T10:59:00;4.30;99.90
10828;DHT22;5467;59.334;13.512;2022-12-18T11:01:28;4.30;99.90
10828;DHT22;5467;59.334;13.512;2022-12-18T11:04:01;4.30;99.90
10828;DHT22;5467;59.334;13.512;2022-12-18T11:06:32;4.20;99.90
10828;DHT22;5467;59.334;13.512;2022-12-18T11:09:01;4.20;99.90
10828;DHT22;5467;59.334;13.512;2022-12-18T11:11:29;4.20;99.90
10828;DHT22;5467;59.334;13.512;2022-12-18T11:14:02;4.20;99.90
10828;DHT22;5467;59.334;13.512;2022-12-18T11:16:32;4.20;99.90
10828;DHT22;5467;59.334;13.512;2022-12-18T11:19:19;4.20;99.90
10828;DHT22;5467;59.334;13.512;2022-12-18T11:21:48;4.30;99.90
10828;DHT22;5467;59.334;13.512;2022-12-18T11:24:22;4.20;99.90
10828;DHT22;5467;59.334;13.512;2022-12-18T11:26:51;4.30;99.90
10828;DHT22;5467;59.334;13.512;2022-12-18T11:29:32;4.20;99.90
10828;DHT22;5467;59.334;13.512;2022-12-18T11:32:27;4.30;99.90
10828;DHT22;5467;59.334;13.512;2022-12-18T11:35:02;4.30;99.90
10828;DHT22;5467;59.334;13.512;2022-12-18T11:37:30;4.30;99.90
10828;DHT22;5467;59.334;13.512;2022-12-18T11:40:01;4.30;99.90
10828;DHT22;5467;59.334;13.512;2022-12-18T11:42:38;4.30;99.90
10828;DHT22;5467;59.334;13.512;2022-12-18T11:45:29;4.30;99.90
10828;DHT22;5467;59.334;13.512;2022-12-18T11:48:03;4.30;99.90
10828;DHT22;5467;59.334;13.512;2022-12-18T11:50:42;4.30;99.90
10828;DHT22;5467;59.334;13.512;2022-12-18T11:53:12;4.30;99.90
10828;DHT22;5467;59.334;13.512;2022-12-18T11:55:48;4.30;99.90
10828;DHT22;5467;59.334;13.512;2022-12-18T11:58:24;4.30;99.90
10828;DHT22;5467;59.334;13.512;2022-12-18T12:01:05;4.30;99.90
10828;DHT22;5467;59.334;13.512;2022-12-18T12:03:51;4.40;99.90
10828;DHT22;5467;59.334;13.512;2022-12-18T12:06:24;4.50;99.90
10828;DHT22;5467;59.334;13.512;2022-12-18T12:09:04;4.50;99.90
10828;DHT22;5467;59.334;13.512;2022-12-18T12:11:44;4.50;99.90
10828;DHT22;5467;59.334;13.512;2022-12-18T12:14:31;4.50;99.90
10828;DHT22;5467;59.334;13.512;2022-12-18T12:17:08;4.50;99.90
10828;DHT22;5467;59.334;13.512;2022-12-18T12:19:44;4.40;99.90
10828;DHT22;5467;59.334;13.512;2022-12-18T12:22:16;4.50;99.90
10828;DHT22;5467;59.334;13.512;2022-12-18T12:24:59;4.40;99.90
10828;DHT22;5467;59.334;13.512;2022-12-18T12:27:32;4.40;99.90
10828;DHT22;5467;59.334;13.512;2022-12-18T12:30:16;4.40;99.90
10828;DHT22;5467;59.334;13.512;2022-12-18T12:33:05;4.40;99.90
10828;DHT22;5467;59.334;13.512;2022-12-18T12:35:45;4.40;99.90
10828;DHT22;5467;59.334;13.512;2022-12-18T12:38:17;4.30;99.90
10828;DHT22;5467;59.334;13.512;2022-12-18T12:40:51;4.30;99.90
10828;DHT22;5467;59.334;13.512;2022-12-18T12:43:30;4.30;99.90
10828;DHT22;5467;59.334;13.512;2022-12-18T12:46:05;4.40;99.90
10828;DHT22;5467;59.334;13.512;2022-12-18T12:48:43;4.30;99.90
10828;DHT22;5467;59.334;13.512;2022-12-18T12:51:18;4.30;99.90
10828;DHT22;5467;59.334;13.512;2022-12-18T12:53:47;4.30;99.90
10828;DHT22;5467;59.334;13.512;2022-12-18T12:56:16;4.30;99.90
10828;DHT22;5467;59.334;13.512;2022-12-18T12:58:52;4.30;99.90
10828;DHT22;5467;59.334;13.512;2022-12-18T13:01:32;4.30;99.90
10828;DHT22;5467;59.334;13.512;2022-12-18T13:04:12;4.30;99.90
10828;DHT22;5467;59.334;13.512;2022-12-18T13:06:45;4.20;99.90
10828;DHT22;5467;59.334;13.512;2022-12-18T13:09:14;4.20;99.90
10828;DHT22;5467;59.334;13.512;2022-12-18T13:11:42;4.20;99.90
10828;DHT22;5467;59.334;13.512;2022-12-18T13:14:29;4.20;99.90
10828;DHT22;5467;59.334;13.512;2022-12-18T13:20:09;4.20;99.90
10828;DHT22;5467;59.334;13.512;2022-12-18T13:22:38;4.20;99.90
10828;DHT22;5467;59.334;13.512;2022-12-18T13:25:28;4.10;99.90
10828;DHT22;5467;59.334;13.512;2022-12-18T13:28:01;4.10;99.90
10828;DHT22;5467;59.334;13.512;2022-12-18T13:30:46;4.10;99.90
10828;DHT22;5467;59.334;13.512;2022-12-18T13:33:37;4.10;99.90
10828;DHT22;5467;59.334;13.512;2022-12-18T13:36:14;3.90;99.90
10828;DHT22;5467;59.334;13.512;2022-12-18T13:38:42;3.90;99.90
10828;DHT22;5467;59.334;13.512;2022-12-18T13:41:24;3.90;99.90
10828;DHT22;5467;59.334;13.512;2022-12-18T13:43:52;4.00;99.90
10828;DHT22;5467;59.334;13.512;2022-12-18T13:46:23;4.00;99.90
10828;DHT22;5467;59.334;13.512;2022-12-18T13:48:56;3.90;99.90
10828;DHT22;5467;59.334;13.512;2022-12-18T13:51:26;3.90;99.90
10828;DHT22;5467;59.334;13.512;2022-12-18T13:53:55;3.90;99.90
10828;DHT22;5467;59.334;13.512;2022-12-18T13:56:26;3.80;99.90
10828;DHT22;5467;59.334;13.512;2022-12-18T13:59:20;3.80;99.90
10828;DHT22;5467;59.334;13.512;2022-12-18T14:01:51;3.80;99.90
10828;DHT22;5467;59.334;13.512;2022-12-18T14:04:22;3.80;99.90
10828;DHT22;5467;59.334;13.512;2022-12-18T14:06:53;3.80;99.90
10828;DHT22;5467;59.334;13.512;2022-12-18T14:09:25;3.80;99.90
10828;DHT22;5467;59.334;13.512;2022-12-18T14:11:53;3.80;99.90
10828;DHT22;5467;59.334;13.512;2022-12-18T14:14:44;3.70;99.90
10828;DHT22;5467;59.334;13.512;2022-12-18T14:17:13;3.70;99.90
10828;DHT22;5467;59.334;13.512;2022-12-18T14:19:43;3.70;99.90
10828;DHT22;5467;59.334;13.512;2022-12-18T14:22:17;3.60;99.90
10828;DHT22;5467;59.334;13.512;2022-12-18T14:24:45;3.60;99.90
10828;DHT22;5467;59.334;13.512;2022-12-18T14:27:21;3.60;99.90
10828;DHT22;5467;59.334;13.512;2022-12-18T14:29:48;3.50;99.90
10828;DHT22;5467;59.334;13.512;2022-12-18T14:32:17;3.50;99.90
10828;DHT22;5467;59.334;13.512;2022-12-18T14:34:46;3.50;99.90
10828;DHT22;5467;59.334;13.512;2022-12-18T14:37:16;3.50;99.90
10828;DHT22;5467;59.334;13.512;2022-12-18T14:39:54;3.50;99.90
10828;DHT22;5467;59.334;13.512;2022-12-18T14:42:22;3.50;99.90
10828;DHT22;5467;59.334;13.512;2022-12-18T14:47:53;3.40;99.90
10828;DHT22;5467;59.334;13.512;2022-12-18T14:50:20;3.40;99.90
10828;DHT22;5467;59.334;13.512;2022-12-18T14:52:48;3.30;99.90
10828;DHT22;5467;59.334;13.512;2022-12-18T14:55:16;3.30;99.90
10828;DHT22;5467;59.334;13.512;2022-12-18T14:57:44;3.30;99.90
10828;DHT22;5467;59.334;13.512;2022-12-18T15:00:17;3.30;99.90
10828;DHT22;5467;59.334;13.512;2022-12-18T15:02:46;3.30;99.90
10828;DHT22;5467;59.334;13.512;2022-12-18T15:05:19;3.30;99.90
10828;DHT22;5467;59.334;13.512;2022-12-18T15:07:49;3.20;99.90
10828;DHT22;5467;59.334;13.512;2022-12-18T15:10:18;3.10;99.90
10828;DHT22;5467;59.334;13.512;2022-12-18T15:12:47;3.10;99.90
10828;DHT22;5467;59.334;13.512;2022-12-18T15:15:47;3.10;99.90
10828;DHT22;5467;59.334;13.512;2022-12-18T15:18:15;3.10;99.90
10828;DHT22;5467;59.334;13.512;2022-12-18T15:20:45;3.10;99.90
10828;DHT22;5467;59.334;13.512;2022-12-18T15:23:18;3.20;99.90
10828;DHT22;5467;59.334;13.512;2022-12-18T15:25:47;3.20;99.90
10828;DHT22;5467;59.334;13.512;2022-12-18T15:28:19;3.20;99.90
10828;DHT22;5467;59.334;13.512;2022-12-18T15:31:02;3.10;99.90
10828;DHT22;5467;59.334;13.512;2022-12-18T15:33:32;3.10;99.90
10828;DHT22;5467;59.334;13.512;2022-12-18T15:36:01;3.00;99.90
10828;DHT22;5467;59.334;13.512;2022-12-18T15:38:30;2.90;99.90
10828;DHT22;5467;59.334;13.512;2022-12-18T15:40:58;2.90;99.90
10828;DHT22;5467;59.334;13.512;2022-12-18T15:43:29;3.00;99.90
10828;DHT22;5467;59.334;13.512;2022-12-18T15:46:03;2.90;99.90
10828;DHT22;5467;59.334;13.512;2022-12-18T15:48:32;2.90;99.90
10828;DHT22;5467;59.334;13.512;2022-12-18T15:50:59;2.90;99.90
10828;DHT22;5467;59.334;13.512;2022-12-18T15:53:31;2.90;99.90
10828;DHT22;5467;59.334;13.512;2022-12-18T15:55:59;2.90;99.90
10828;DHT22;5467;59.334;13.512;2022-12-18T15:58:44;2.90;99.90
10828;DHT22;5467;59.334;13.512;2022-12-18T16:01:11;2.90;99.90
10828;DHT22;5467;59.334;13.512;2022-12-18T16:03:38;2.80;99.90
10828;DHT22;5467;59.334;13.512;2022-12-18T16:06:06;2.80;99.90
10828;DHT22;5467;59.334;13.512;2022-12-18T16:08:34;2.90;99.90
10828;DHT22;5467;59.334;13.512;2022-12-18T16:11:01;2.80;99.90
10828;DHT22;5467;59.334;13.512;2022-12-18T16:13:29;2.90;99.90